createdAt,value
2023-04-25T00:01:49.263Z,60.29
2023-04-25T00:04:17.140Z,60.39
2023-04-25T00:06:44.726Z,60.29
2023-04-25T00:09:12.234Z,60.10
2023-04-25T00:11:39.950Z,60.22
2023-04-25T00:14:07.777Z,59.92
2023-04-25T00:16:35.929Z,60.41
2023-04-25T00:19:04.034Z,60.02
2023-04-25T00:21:32.657Z,60.05
2023-04-25T00:24:01.160Z,60.29
2023-04-25T00:26:28.854Z,59.33
2023-04-25T00:28:56.747Z,59.56
2023-04-25T00:31:24.340Z,59.51
2023-04-25T00:33:52.361Z,59.81
2023-04-25T00:36:19.920Z,59.40
2023-04-25T00:38:47.619Z,59.56
2023-04-25T00:41:15.570Z,59.61
2023-04-25T00:43:43.486Z,59.81
2023-04-25T00:46:10.885Z,60.08
2023-04-25T00:48:38.550Z,60.15
2023-04-25T00:51:06.123Z,60.49
2023-04-25T00:53:33.836Z,60.94
2023-04-25T00:56:01.765Z,60.73
2023-04-25T00:58:29.398Z,59.88
2023-04-25T01:00:57.560Z,60.54
2023-04-25T01:03:25.547Z,60.97
2023-04-25T01:05:53.374Z,62.33
2023-04-25T01:08:23.211Z,61.80
2023-04-25T01:10:51.192Z,62.06
2023-04-25T01:13:18.617Z,60.65
2023-04-25T01:15:46.164Z,60.82
2023-04-25T01:18:13.863Z,60.16
2023-04-25T01:20:43.003Z,60.60
2023-04-25T01:23:11.113Z,60.01
2023-04-25T01:25:39.628Z,60.15
2023-04-25T01:28:07.399Z,59.13
2023-04-25T01:30:36.272Z,59.65
2023-04-25T01:33:06.235Z,58.54
2023-04-25T01:35:33.645Z,57.93
2023-04-25T01:38:01.385Z,58.44
2023-04-25T01:40:29.257Z,58.81
2023-04-25T01:42:57.950Z,58.47
2023-04-25T01:45:25.507Z,57.98
2023-04-25T01:47:53.208Z,58.15
2023-04-25T01:50:21.291Z,57.08
2023-04-25T01:52:49.166Z,57.49
2023-04-25T01:55:18.355Z,56.95
2023-04-25T01:57:46.915Z,57.03
2023-04-25T02:00:14.618Z,57.17
2023-04-25T02:02:42.150Z,57.08
2023-04-25T02:05:11.639Z,58.02
2023-04-25T02:07:39.843Z,56.48
2023-04-25T02:10:08.242Z,56.75
2023-04-25T02:12:36.839Z,57.45
2023-04-25T02:15:05.572Z,56.34
2023-04-25T02:17:33.496Z,56.48
2023-04-25T02:20:01.260Z,56.28
2023-04-25T02:22:31.198Z,56.34
2023-04-25T02:24:58.942Z,57.03
2023-04-25T02:27:26.644Z,56.79
2023-04-25T02:29:54.307Z,56.76
2023-04-25T02:32:21.707Z,56.21
2023-04-25T02:34:49.434Z,57.01
2023-04-25T02:37:17.213Z,56.01
2023-04-25T02:39:46.501Z,56.45
2023-04-25T02:42:13.937Z,56.04
2023-04-25T02:44:41.664Z,56.19
2023-04-25T02:47:09.090Z,56.68
2023-04-25T02:49:36.655Z,56.92
2023-04-25T02:52:04.428Z,56.71
2023-04-25T02:54:32.040Z,57.12
2023-04-25T02:56:59.948Z,57.06
2023-04-25T02:59:28.089Z,56.83
2023-04-25T03:01:55.932Z,57.20
2023-04-25T03:04:24.914Z,56.65
2023-04-25T03:06:53.415Z,56.65
2023-04-25T03:09:21.503Z,55.98
2023-04-25T03:11:49.232Z,56.07
2023-04-25T03:14:17.063Z,55.74
2023-04-25T03:16:46.124Z,56.68
2023-04-25T03:19:13.608Z,56.16
2023-04-25T03:21:41.277Z,55.96
2023-04-25T03:24:08.945Z,55.70
2023-04-25T03:26:36.310Z,56.10
2023-04-25T03:29:04.108Z,55.91
2023-04-25T03:31:32.080Z,56.08
2023-04-25T03:34:00.139Z,56.71
2023-04-25T03:36:27.854Z,56.47
2023-04-25T03:38:55.588Z,57.09
2023-04-25T03:41:23.318Z,56.84
2023-04-25T03:43:51.581Z,58.57
2023-04-25T03:46:19.354Z,58.13
2023-04-25T03:48:47.226Z,57.79
2023-04-25T03:51:16.752Z,58.15
2023-04-25T03:53:44.409Z,58.64
2023-04-25T03:56:15.391Z,58.75
2023-04-25T03:58:43.172Z,58.77
2023-04-25T04:01:11.236Z,58.30
2023-04-25T04:03:39.362Z,58.72
2023-04-25T04:06:07.910Z,59.05
2023-04-25T04:08:36.423Z,58.37
2023-04-25T04:11:04.277Z,58.55
2023-04-25T04:13:31.768Z,59.81
2023-04-25T04:15:59.470Z,60.24
2023-04-25T04:18:27.266Z,58.73
2023-04-25T04:20:56.376Z,60.68
2023-04-25T04:23:23.959Z,60.92
2023-04-25T04:25:53.364Z,61.27
2023-04-25T04:28:21.555Z,61.26
2023-04-25T04:30:52.068Z,60.90
2023-04-25T04:33:20.638Z,60.94
2023-04-25T04:35:49.527Z,60.65
2023-04-25T04:38:17.587Z,60.06
2023-04-25T04:40:45.323Z,60.65
2023-04-25T04:43:12.824Z,60.59
2023-04-25T04:45:41.334Z,62.15
2023-04-25T04:48:09.578Z,62.03
2023-04-25T04:50:37.256Z,62.86
2023-04-25T04:53:05.289Z,63.99
2023-04-25T04:55:33.073Z,65.18
2023-04-25T04:58:01.599Z,64.06
2023-04-25T05:00:30.495Z,65.82
2023-04-25T05:02:58.735Z,65.63
2023-04-25T05:05:27.183Z,64.86
2023-04-25T05:07:54.731Z,65.42
2023-04-25T05:10:22.530Z,66.35
2023-04-25T05:12:54.152Z,66.20
2023-04-25T05:15:22.144Z,66.43
2023-04-25T05:17:51.017Z,66.30
2023-04-25T05:20:20.092Z,66.09
2023-04-25T05:22:49.524Z,66.67
2023-04-25T05:25:17.047Z,67.13
2023-04-25T05:27:46.086Z,67.15
2023-04-25T05:30:14.948Z,66.72
2023-04-25T05:32:42.509Z,67.91
2023-04-25T05:35:10.487Z,69.11
2023-04-25T05:37:38.656Z,68.86
2023-04-25T05:40:07.899Z,68.40
2023-04-25T05:42:35.822Z,68.65
2023-04-25T05:45:04.041Z,68.52
2023-04-25T05:47:32.548Z,68.50
2023-04-25T05:50:00.363Z,69.85
2023-04-25T05:52:28.477Z,68.56
2023-04-25T05:54:56.941Z,67.91
2023-04-25T05:57:26.230Z,67.98
2023-04-25T05:59:54.383Z,68.89
2023-04-25T06:02:22.766Z,68.84
2023-04-25T06:04:52.288Z,69.88
2023-04-25T06:07:21.233Z,69.79
2023-04-25T06:09:48.732Z,69.03
2023-04-25T06:12:16.474Z,68.34
2023-04-25T06:14:44.010Z,68.42
2023-04-25T06:17:11.561Z,68.28
2023-04-25T06:19:39.296Z,67.38
2023-04-25T06:22:08.234Z,66.61
2023-04-25T06:24:36.364Z,66.49
2023-04-25T06:27:04.870Z,66.28
2023-04-25T06:29:32.250Z,66.39
2023-04-25T06:31:59.620Z,65.37
2023-04-25T06:34:27.372Z,65.07
2023-04-25T06:36:54.833Z,65.04
2023-04-25T06:39:24.349Z,64.46
2023-04-25T06:41:52.246Z,65.03
2023-04-25T06:44:30.454Z,64.99
2023-04-25T06:46:58.900Z,65.58
2023-04-25T06:49:26.593Z,65.03
2023-04-25T06:51:54.360Z,64.97
2023-04-25T06:54:22.034Z,66.06
2023-04-25T06:56:54.669Z,65.31
2023-04-25T06:59:22.777Z,65.06
2023-04-25T07:01:51.306Z,64.09
2023-04-25T07:04:19.074Z,64.30
2023-04-25T07:06:49.043Z,64.81
2023-04-25T07:09:17.648Z,64.08
2023-04-25T07:11:46.382Z,63.75
2023-04-25T07:14:14.312Z,63.73
2023-04-25T07:16:41.861Z,62.39
2023-04-25T07:19:09.490Z,61.93
2023-04-25T07:21:37.428Z,60.95
2023-04-25T07:24:05.304Z,60.26
2023-04-25T07:26:33.172Z,60.12
2023-04-25T07:29:02.871Z,60.29
2023-04-25T07:31:30.367Z,59.99
2023-04-25T07:34:00.625Z,59.78
2023-04-25T07:36:29.856Z,59.68
2023-04-25T07:38:57.291Z,59.92
2023-04-25T07:41:24.783Z,59.11
2023-04-25T07:43:53.010Z,57.22
2023-04-25T07:46:20.960Z,56.99
2023-04-25T07:48:49.023Z,56.77
2023-04-25T07:51:17.046Z,57.40
2023-04-25T07:53:44.648Z,57.50
2023-04-25T07:56:12.625Z,55.73
2023-04-25T07:58:40.745Z,56.44
2023-04-25T08:01:08.940Z,56.71
2023-04-25T08:03:37.644Z,57.25
2023-04-25T08:06:08.178Z,55.90
2023-04-25T08:08:37.681Z,56.71
2023-04-25T08:11:07.182Z,55.64
2023-04-25T08:13:34.590Z,54.93
2023-04-25T08:16:02.473Z,55.56
2023-04-25T08:18:30.346Z,55.51
2023-04-25T08:20:58.269Z,54.42
2023-04-25T08:23:26.376Z,56.22
2023-04-25T08:25:53.960Z,55.88
2023-04-25T08:28:22.250Z,55.62
2023-04-25T08:30:50.070Z,54.22
2023-04-25T08:33:18.486Z,55.59
2023-04-25T08:35:46.930Z,54.59
2023-04-25T08:38:14.975Z,54.95
2023-04-25T08:40:45.657Z,54.32
2023-04-25T08:43:15.712Z,55.07
2023-04-25T08:45:43.711Z,55.99
2023-04-25T08:48:13.422Z,54.14
2023-04-25T08:50:55.438Z,54.79
2023-04-25T08:53:29.079Z,53.81
2023-04-25T08:55:59.932Z,55.05
2023-04-25T08:58:28.834Z,55.61
2023-04-25T09:00:56.276Z,55.60
2023-04-25T09:03:24.432Z,55.36
2023-04-25T09:05:52.483Z,55.48
2023-04-25T09:08:20.256Z,55.84
2023-04-25T09:10:48.362Z,56.01
2023-04-25T09:13:25.800Z,55.29
2023-04-25T09:15:57.159Z,54.56
2023-04-25T09:18:30.833Z,54.80
2023-04-25T09:21:13.735Z,54.07
2023-04-25T09:23:45.888Z,54.61
2023-04-25T09:26:19.048Z,52.75
2023-04-25T09:28:48.910Z,53.35
2023-04-25T09:31:25.258Z,52.85
2023-04-25T09:34:03.314Z,52.95
2023-04-25T09:36:35.618Z,52.35
2023-04-25T09:39:16.196Z,52.99
2023-04-25T09:41:44.047Z,53.55
2023-04-25T09:44:14.135Z,52.08
2023-04-25T09:46:43.146Z,52.96
2023-04-25T09:49:12.310Z,51.13
2023-04-25T09:51:40.723Z,52.10
2023-04-25T09:54:08.244Z,50.88
2023-04-25T09:56:38.520Z,51.01
2023-04-25T09:59:07.593Z,51.54
2023-04-25T10:01:36.126Z,50.96
2023-04-25T10:04:05.911Z,50.37
2023-04-25T10:06:35.704Z,51.48
2023-04-25T10:09:04.866Z,50.65
2023-04-25T10:11:33.646Z,48.64
2023-04-25T10:14:01.795Z,48.63
2023-04-25T10:16:29.919Z,49.29
2023-04-25T10:18:57.764Z,48.78
2023-04-25T10:21:25.408Z,48.09
2023-04-25T10:23:53.165Z,48.07
2023-04-25T10:26:21.178Z,48.39
2023-04-25T10:28:59.995Z,48.01
2023-04-25T10:31:28.267Z,47.87
2023-04-25T10:33:55.904Z,47.27
2023-04-25T10:36:24.757Z,47.77
2023-04-25T10:38:52.609Z,47.94
2023-04-25T10:41:21.432Z,47.81
2023-04-25T10:43:50.073Z,46.35
2023-04-25T10:46:20.259Z,46.60
2023-04-25T10:48:52.528Z,46.82
2023-04-25T10:51:24.357Z,46.16
2023-04-25T10:53:59.794Z,46.15
2023-04-25T10:56:28.594Z,44.64
2023-04-25T10:59:13.228Z,44.27
2023-04-25T11:01:43.085Z,42.76
2023-04-25T11:04:30.062Z,42.20
2023-04-25T11:07:09.263Z,40.83
2023-04-25T11:09:39.871Z,38.86
2023-04-25T11:12:09.402Z,40.94
2023-04-25T11:14:37.235Z,41.09
2023-04-25T11:17:04.805Z,41.98
2023-04-25T11:19:32.905Z,41.16
2023-04-25T11:22:01.243Z,39.36
2023-04-25T11:24:29.808Z,38.26
2023-04-25T11:26:59.290Z,39.55
2023-04-25T11:29:34.553Z,39.63
2023-04-25T11:32:03.335Z,39.50
2023-04-25T11:34:32.280Z,38.79
2023-04-25T11:37:00.839Z,39.30
2023-04-25T11:39:29.107Z,39.44
2023-04-25T11:41:56.828Z,39.83
2023-04-25T11:44:24.907Z,39.22
2023-04-25T11:46:52.608Z,40.35
2023-04-25T11:49:20.039Z,39.66
2023-04-25T11:51:49.297Z,38.66
2023-04-25T11:54:17.448Z,39.11
2023-04-25T11:56:46.352Z,39.39
2023-04-25T11:59:14.315Z,38.45
2023-04-25T12:01:43.077Z,39.24
2023-04-25T12:04:18.889Z,38.83
2023-04-25T12:06:49.133Z,38.72
2023-04-25T12:09:20.373Z,37.75
2023-04-25T12:11:54.486Z,36.64
2023-04-25T12:14:24.844Z,38.08
2023-04-25T12:16:52.749Z,36.80
2023-04-25T12:19:21.161Z,36.70
2023-04-25T12:21:58.150Z,35.04
2023-04-25T12:24:28.425Z,35.92
2023-04-25T12:27:06.595Z,36.34
2023-04-25T12:29:48.675Z,36.97
2023-04-25T12:32:17.985Z,37.62
2023-04-25T12:34:46.077Z,37.03
2023-04-25T12:37:14.168Z,36.94
2023-04-25T12:39:41.881Z,37.63
2023-04-25T12:42:12.478Z,38.05
2023-04-25T12:44:40.294Z,37.24
2023-04-25T12:47:08.366Z,37.13
2023-04-25T12:49:35.902Z,36.26
2023-04-25T12:52:03.660Z,37.05
2023-04-25T12:54:32.184Z,35.98
2023-04-25T12:57:00.170Z,35.74
2023-04-25T12:59:27.919Z,35.59
2023-04-25T13:01:55.624Z,36.36
2023-04-25T13:04:23.071Z,34.28
2023-04-25T13:06:50.618Z,35.41
2023-04-25T13:09:18.408Z,34.67
2023-04-25T13:11:46.884Z,34.70
2023-04-25T13:14:14.310Z,34.95
2023-04-25T13:16:42.401Z,34.07
2023-04-25T13:19:12.402Z,35.15
2023-04-25T13:21:40.232Z,34.53
2023-04-25T13:24:08.069Z,34.30
2023-04-25T13:26:35.838Z,34.46
2023-04-25T13:29:04.684Z,35.68
2023-04-25T13:31:32.686Z,34.93
2023-04-25T13:34:00.301Z,35.75
2023-04-25T13:36:28.924Z,38.57
2023-04-25T13:38:56.600Z,35.54
2023-04-25T13:41:24.258Z,34.55
2023-04-25T13:43:52.503Z,34.06
2023-04-25T13:46:40.906Z,34.02
2023-04-25T13:49:12.833Z,34.19
2023-04-25T13:51:41.830Z,33.26
2023-04-25T13:54:09.254Z,34.39
2023-04-25T13:56:36.788Z,34.28
2023-04-25T13:59:04.579Z,34.15
2023-04-25T14:01:35.298Z,35.11
2023-04-25T14:04:05.098Z,34.46
2023-04-25T14:06:33.026Z,33.83
2023-04-25T14:09:02.047Z,35.01
2023-04-25T14:11:29.875Z,34.42
2023-04-25T14:13:57.307Z,34.16
2023-04-25T14:16:24.802Z,34.98
2023-04-25T14:18:52.639Z,35.41
2023-04-25T14:21:21.371Z,35.92
2023-04-25T14:23:49.158Z,34.82
2023-04-25T14:26:17.347Z,35.26
2023-04-25T14:28:44.807Z,36.39
2023-04-25T14:31:12.375Z,36.75
2023-04-25T14:33:43.133Z,36.17
2023-04-25T14:36:12.017Z,35.87
2023-04-25T14:38:39.764Z,36.16
2023-04-25T14:41:07.231Z,36.33
2023-04-25T14:43:43.581Z,36.57
2023-04-25T14:46:12.072Z,37.36
2023-04-25T14:48:40.076Z,36.38
2023-04-25T14:51:07.951Z,36.60
2023-04-25T14:53:35.756Z,36.26
2023-04-25T14:56:03.485Z,35.69
2023-04-25T14:58:32.485Z,36.31
2023-04-25T15:01:01.018Z,35.74
2023-04-25T15:03:28.527Z,36.28
2023-04-25T15:05:56.316Z,36.54
2023-04-25T15:08:23.956Z,35.77
2023-04-25T15:10:51.561Z,36.28
2023-04-25T15:13:20.259Z,37.10
2023-04-25T15:15:52.093Z,36.08
2023-04-25T15:18:23.697Z,36.49
2023-04-25T15:20:52.710Z,36.88
2023-04-25T15:23:20.885Z,36.70
2023-04-25T15:25:48.538Z,37.25
2023-04-25T15:28:16.807Z,35.78
2023-04-25T15:30:44.693Z,36.95
2023-04-25T15:33:12.237Z,36.60
2023-04-25T15:35:40.345Z,36.59
2023-04-25T15:38:08.055Z,35.98
2023-04-25T15:40:35.432Z,36.22
2023-04-25T15:43:03.377Z,37.24
2023-04-25T15:45:32.294Z,40.37
2023-04-25T15:47:59.793Z,40.74
2023-04-25T15:50:27.533Z,41.43
2023-04-25T15:52:54.961Z,41.69
2023-04-25T15:55:23.271Z,41.97
2023-04-25T15:57:51.336Z,42.14
2023-04-25T16:00:19.350Z,42.06
2023-04-25T16:02:48.562Z,41.90
2023-04-25T16:05:17.353Z,41.70
2023-04-25T16:07:45.470Z,41.78
2023-04-25T16:10:13.738Z,41.68
2023-04-25T16:12:41.243Z,41.65
2023-04-25T16:15:09.016Z,41.98
2023-04-25T16:17:36.825Z,42.13
2023-04-25T16:20:09.984Z,41.63
2023-04-25T16:22:41.593Z,42.43
2023-04-25T16:25:09.695Z,42.36
2023-04-25T16:27:39.940Z,42.04
2023-04-25T16:30:08.759Z,42.12
2023-04-25T16:32:36.703Z,42.26
2023-04-25T16:35:04.344Z,42.44
2023-04-25T16:37:32.132Z,42.22
2023-04-25T16:39:59.685Z,42.06
2023-04-25T16:42:27.130Z,43.31
2023-04-25T16:44:54.984Z,42.97
2023-04-25T16:47:22.447Z,42.59
2023-04-25T16:49:50.816Z,43.09
2023-04-25T16:52:21.170Z,43.32
2023-04-25T16:54:48.552Z,43.26
2023-04-25T16:57:16.503Z,43.00
2023-04-25T16:59:44.577Z,43.18
2023-04-25T17:02:13.047Z,43.06
2023-04-25T17:04:41.127Z,43.16
2023-04-25T17:07:09.035Z,42.98
2023-04-25T17:09:36.696Z,43.54
2023-04-25T17:12:04.746Z,44.25
2023-04-25T17:14:35.382Z,43.61
2023-04-25T17:17:03.656Z,43.87
2023-04-25T17:19:31.689Z,43.08
2023-04-25T17:21:59.459Z,43.45
2023-04-25T17:24:26.933Z,43.58
2023-04-25T17:26:54.604Z,43.70
2023-04-25T17:29:23.782Z,43.94
2023-04-25T17:31:51.287Z,44.28
2023-04-25T17:34:18.714Z,45.12
2023-04-25T17:36:46.552Z,44.50
2023-04-25T17:39:17.143Z,44.76
2023-04-25T17:41:45.054Z,45.10
2023-04-25T17:44:13.138Z,44.99
2023-04-25T17:46:40.735Z,44.86
2023-04-25T17:49:08.233Z,45.18
2023-04-25T17:51:36.030Z,45.47
2023-04-25T17:54:10.065Z,45.37
2023-04-25T17:56:39.615Z,45.36
2023-04-25T17:59:07.160Z,45.59
2023-04-25T18:01:48.312Z,45.60
2023-04-25T18:04:18.759Z,46.34
2023-04-25T18:06:46.263Z,47.14
2023-04-25T18:09:17.574Z,48.23
2023-04-25T18:11:45.601Z,48.13
2023-04-25T18:14:15.152Z,49.10
2023-04-25T18:16:48.789Z,48.32
2023-04-25T18:19:21.191Z,48.28
2023-04-25T18:21:49.410Z,48.61
2023-04-25T18:24:17.927Z,49.04
2023-04-25T18:26:45.970Z,49.22
2023-04-25T18:29:29.104Z,49.37
2023-04-25T18:32:00.823Z,49.99
2023-04-25T18:34:28.280Z,49.32
2023-04-25T18:36:56.502Z,49.62
2023-04-25T18:39:25.153Z,50.16
2023-04-25T18:41:59.306Z,49.88
2023-04-25T18:44:33.969Z,49.58
2023-04-25T18:47:03.989Z,49.63
2023-04-25T18:49:33.398Z,49.68
2023-04-25T18:52:00.952Z,49.96
2023-04-25T18:54:28.462Z,49.96
2023-04-25T18:57:00.679Z,49.34
2023-04-25T18:59:33.156Z,49.70
2023-04-25T19:02:02.039Z,49.13
2023-04-25T19:04:29.714Z,49.60
2023-04-25T19:06:59.587Z,49.42
2023-04-25T19:09:27.370Z,49.86
2023-04-25T19:11:54.869Z,49.74
2023-04-25T19:14:22.275Z,49.93
2023-04-25T19:16:50.062Z,49.57
2023-04-25T19:19:17.555Z,49.57
2023-04-25T19:21:45.023Z,49.87
2023-04-25T19:24:12.735Z,50.08
2023-04-25T19:26:40.462Z,50.12
2023-04-25T19:29:10.574Z,50.15
2023-04-25T19:31:39.406Z,50.06
2023-04-25T19:34:07.749Z,50.04
2023-04-25T19:36:38.429Z,50.50
2023-04-25T19:39:07.521Z,50.58
2023-04-25T19:41:36.702Z,50.22
2023-04-25T19:44:06.716Z,50.14
2023-04-25T19:46:35.646Z,50.09
2023-04-25T19:49:07.054Z,50.01
2023-04-25T19:51:36.178Z,49.97
2023-04-25T19:54:04.238Z,50.25
2023-04-25T19:56:31.708Z,49.70
2023-04-25T19:58:59.547Z,50.13
2023-04-25T20:01:27.208Z,50.96
2023-04-25T20:03:56.135Z,51.32
2023-04-25T20:06:23.864Z,51.80
2023-04-25T20:08:54.599Z,51.81
2023-04-25T20:11:22.435Z,51.98
2023-04-25T20:13:50.212Z,51.86
2023-04-25T20:16:20.238Z,52.12
2023-04-25T20:18:48.930Z,52.48
2023-04-25T20:21:17.312Z,52.50
2023-04-25T20:23:45.386Z,52.74
2023-04-25T20:26:13.099Z,52.65
2023-04-25T20:28:41.898Z,52.94
2023-04-25T20:31:10.746Z,53.06
2023-04-25T20:33:38.705Z,53.02
2023-04-25T20:36:06.188Z,52.70
2023-04-25T20:38:33.660Z,52.68
2023-04-25T20:41:01.332Z,52.79
2023-04-25T20:43:29.187Z,52.57
2023-04-25T20:45:57.310Z,52.84
2023-04-25T20:48:25.018Z,53.08
2023-04-25T20:50:52.975Z,53.58
2023-04-25T20:53:20.398Z,53.48
2023-04-25T20:55:48.196Z,53.41
2023-04-25T20:58:16.303Z,53.51
2023-04-25T21:00:43.878Z,53.31
2023-04-25T21:03:13.220Z,53.11
2023-04-25T21:05:40.974Z,53.36
2023-04-25T21:08:08.541Z,53.31
2023-04-25T21:10:37.502Z,54.06
2023-04-25T21:13:05.831Z,53.78
2023-04-25T21:15:34.655Z,53.82
2023-04-25T21:18:05.358Z,53.82
2023-04-25T21:20:32.962Z,53.76
2023-04-25T21:23:00.593Z,53.38
2023-04-25T21:25:31.592Z,53.69
2023-04-25T21:28:00.007Z,53.27
2023-04-25T21:30:28.000Z,52.99
2023-04-25T21:32:56.403Z,53.07
2023-04-25T21:35:24.327Z,52.97
2023-04-25T21:37:52.556Z,52.74
2023-04-25T21:40:20.054Z,52.82
2023-04-25T21:42:50.091Z,52.77
2023-04-25T21:45:18.461Z,52.93
2023-04-25T21:47:46.905Z,52.73
2023-04-25T21:50:14.908Z,52.68
2023-04-25T21:52:42.761Z,52.50
2023-04-25T21:55:11.589Z,52.42
2023-04-25T21:57:39.124Z,52.75
2023-04-25T22:00:20.122Z,52.85
2023-04-25T22:02:48.362Z,52.31
2023-04-25T22:05:16.606Z,52.50
2023-04-25T22:07:44.055Z,52.91
2023-04-25T22:10:11.796Z,52.85
2023-04-25T22:12:39.394Z,52.90
2023-04-25T22:15:08.909Z,53.00
2023-04-25T22:17:36.944Z,52.98
2023-04-25T22:20:14.364Z,53.38
2023-04-25T22:22:42.085Z,53.38
2023-04-25T22:25:10.145Z,53.58
2023-04-25T22:27:40.776Z,53.98
2023-04-25T22:30:09.513Z,54.26
2023-04-25T22:32:37.079Z,55.41
2023-04-25T22:35:05.280Z,54.97
2023-04-25T22:37:33.052Z,55.45
2023-04-25T22:40:03.724Z,55.29
2023-04-25T22:42:39.839Z,55.31
2023-04-25T22:45:08.207Z,55.37
2023-04-25T22:47:37.140Z,55.43
2023-04-25T22:50:12.989Z,55.45
2023-04-25T22:52:42.370Z,55.57
2023-04-25T22:55:12.428Z,55.88
2023-04-25T22:57:40.510Z,55.64
2023-04-25T23:00:29.083Z,56.73
2023-04-25T23:02:57.054Z,56.26
2023-04-25T23:05:24.799Z,56.10
2023-04-25T23:07:52.316Z,56.92
2023-04-25T23:10:19.876Z,57.14
2023-04-25T23:12:47.784Z,57.40
2023-04-25T23:15:15.272Z,57.32
2023-04-25T23:17:43.416Z,56.80
2023-04-25T23:20:12.194Z,57.21
2023-04-25T23:22:39.740Z,56.45
2023-04-25T23:25:08.152Z,56.22
2023-04-25T23:27:35.870Z,56.54
2023-04-25T23:30:03.508Z,56.59
2023-04-25T23:32:32.350Z,56.61
2023-04-25T23:35:00.172Z,56.41
2023-04-25T23:37:27.644Z,56.34
2023-04-25T23:39:55.610Z,56.50
2023-04-25T23:42:23.289Z,55.95
2023-04-25T23:44:50.702Z,55.51
2023-04-25T23:47:19.016Z,55.72
2023-04-25T23:49:46.949Z,55.94
2023-04-25T23:52:14.408Z,55.95
2023-04-25T23:54:42.411Z,55.92
2023-04-25T23:57:12.035Z,55.81
2023-04-25T23:59:39.473Z,56.28
